createdAt,value
2023-05-19T00:01:22.158Z,1.20
2023-05-19T00:04:24.840Z,1.15
2023-05-19T00:07:31.094Z,1.10
2023-05-19T00:10:33.917Z,0.97
2023-05-19T00:13:36.899Z,0.95
2023-05-19T00:16:39.749Z,1.00
2023-05-19T00:19:42.474Z,0.90
2023-05-19T00:22:44.981Z,0.95
2023-05-19T00:25:47.448Z,0.88
2023-05-19T00:28:50.950Z,1.00
2023-05-19T00:31:53.420Z,1.00
2023-05-19T00:34:55.929Z,1.10
2023-05-19T00:37:58.403Z,1.08
2023-05-19T00:41:02.111Z,1.37
2023-05-19T00:44:04.835Z,0.90
2023-05-19T00:47:08.325Z,1.30
2023-05-19T00:50:10.999Z,1.25
2023-05-19T00:53:14.978Z,0.95
2023-05-19T00:56:18.394Z,1.10
2023-05-19T00:59:21.098Z,0.77
2023-05-19T01:02:24.080Z,1.00
2023-05-19T01:05:26.889Z,1.40
2023-05-19T01:08:31.688Z,1.20
2023-05-19T01:11:34.122Z,0.73
2023-05-19T01:14:36.611Z,1.00
2023-05-19T01:17:54.794Z,0.70
2023-05-19T01:21:44.493Z,1.10
2023-05-19T01:24:54.844Z,0.95
2023-05-19T01:28:02.890Z,0.88
2023-05-19T01:31:07.475Z,1.00
2023-05-19T01:34:13.116Z,1.03
2023-05-19T01:37:17.738Z,0.90
2023-05-19T01:40:23.869Z,0.60
2023-05-19T01:43:27.153Z,1.07
2023-05-19T01:46:29.669Z,0.70
2023-05-19T01:49:32.192Z,0.85
2023-05-19T01:52:34.621Z,0.95
2023-05-19T01:55:44.839Z,0.90
2023-05-19T01:58:53.101Z,1.02
2023-05-19T02:02:00.530Z,0.90
2023-05-19T02:05:18.649Z,0.60
2023-05-19T02:08:25.949Z,1.13
2023-05-19T02:11:40.035Z,0.57
2023-05-19T02:14:49.702Z,1.20
2023-05-19T02:17:55.654Z,0.98
2023-05-19T02:20:58.290Z,1.48
2023-05-19T02:24:00.872Z,1.00
2023-05-19T02:27:03.874Z,1.00
2023-05-19T02:30:08.307Z,1.20
2023-05-19T02:33:12.512Z,1.05
2023-05-19T02:36:15.136Z,1.07
2023-05-19T02:39:17.827Z,0.85
2023-05-19T02:42:20.960Z,1.05
2023-05-19T02:45:23.913Z,1.40
2023-05-19T02:48:26.379Z,1.38
2023-05-19T02:51:28.794Z,1.10
2023-05-19T02:54:31.796Z,1.27
2023-05-19T02:57:35.036Z,1.05
2023-05-19T03:00:37.514Z,1.10
2023-05-19T03:03:40.042Z,0.95
2023-05-19T03:06:42.578Z,1.10
2023-05-19T03:09:45.003Z,0.80
2023-05-19T03:12:47.378Z,1.15
2023-05-19T03:15:51.210Z,1.00
2023-05-19T03:18:53.877Z,1.35
2023-05-19T03:21:56.571Z,1.10
2023-05-19T03:24:59.129Z,1.20
2023-05-19T03:28:01.744Z,1.33
2023-05-19T03:31:04.294Z,1.02
2023-05-19T03:34:11.900Z,0.80
2023-05-19T03:37:14.384Z,0.90
2023-05-19T03:40:18.924Z,0.95
2023-05-19T03:43:21.623Z,1.00
2023-05-19T03:46:29.740Z,1.37
2023-05-19T03:49:46.012Z,1.20
2023-05-19T03:53:07.286Z,1.23
2023-05-19T03:56:18.135Z,1.13
2023-05-19T03:59:20.646Z,1.13
2023-05-19T04:02:23.095Z,1.10
2023-05-19T04:05:25.791Z,1.25
2023-05-19T04:08:29.436Z,1.43
2023-05-19T04:11:32.023Z,1.10
2023-05-19T04:14:34.449Z,1.02
2023-05-19T04:17:37.143Z,1.10
2023-05-19T04:20:39.593Z,1.55
2023-05-19T04:23:42.154Z,1.65
2023-05-19T04:26:47.095Z,1.50
2023-05-19T04:29:51.245Z,1.40
2023-05-19T04:32:53.797Z,1.75
2023-05-19T04:35:56.840Z,1.55
2023-05-19T04:39:02.767Z,1.00
2023-05-19T04:42:06.470Z,1.27
2023-05-19T04:45:10.452Z,1.25
2023-05-19T04:48:15.955Z,1.27
2023-05-19T04:51:18.375Z,1.63
2023-05-19T04:54:21.389Z,2.25
2023-05-19T04:57:23.919Z,1.40
2023-05-19T05:00:26.771Z,1.80
2023-05-19T05:03:35.458Z,1.50
2023-05-19T05:06:42.520Z,1.50
2023-05-19T05:09:45.576Z,1.50
2023-05-19T05:12:48.336Z,1.50
2023-05-19T05:15:54.578Z,1.02
2023-05-19T05:18:57.867Z,1.03
2023-05-19T05:22:01.006Z,1.13
2023-05-19T05:25:04.287Z,1.00
2023-05-19T05:28:06.808Z,1.52
2023-05-19T05:31:11.753Z,1.48
2023-05-19T05:34:17.681Z,1.40
2023-05-19T05:37:20.509Z,1.65
2023-05-19T05:40:22.992Z,1.40
2023-05-19T05:43:25.853Z,1.50
2023-05-19T05:46:33.569Z,1.20
2023-05-19T05:49:38.154Z,1.27
2023-05-19T05:52:42.572Z,1.38
2023-05-19T05:55:47.206Z,1.73
2023-05-19T05:58:50.747Z,1.38
2023-05-19T06:01:53.270Z,1.45
2023-05-19T06:04:56.280Z,1.35
2023-05-19T06:07:58.868Z,1.23
2023-05-19T06:11:08.456Z,1.00
2023-05-19T06:14:11.837Z,1.65
2023-05-19T06:17:37.418Z,1.30
2023-05-19T06:20:39.899Z,1.53
2023-05-19T06:23:42.458Z,1.17
2023-05-19T06:26:46.390Z,1.40
2023-05-19T06:29:48.884Z,2.00
2023-05-19T06:32:51.354Z,2.30
2023-05-19T06:35:53.903Z,1.80
2023-05-19T06:38:57.664Z,2.75
2023-05-19T06:42:00.890Z,2.17
2023-05-19T06:45:23.947Z,1.38
2023-05-19T06:48:27.575Z,1.77
2023-05-19T06:51:30.088Z,1.80
2023-05-19T06:54:32.739Z,2.28
2023-05-19T06:57:36.249Z,1.67
2023-05-19T07:00:39.373Z,2.40
2023-05-19T07:03:44.163Z,1.85
2023-05-19T07:06:50.251Z,1.83
2023-05-19T07:09:53.188Z,2.40
2023-05-19T07:12:58.213Z,1.97
2023-05-19T07:16:04.172Z,1.65
2023-05-19T07:19:06.771Z,3.17
2023-05-19T07:22:09.328Z,1.97
2023-05-19T07:25:11.796Z,1.65
2023-05-19T07:28:15.025Z,2.42
2023-05-19T07:31:17.624Z,2.13
2023-05-19T07:34:20.900Z,2.25
2023-05-19T07:37:23.367Z,2.30
2023-05-19T07:40:25.783Z,3.65
2023-05-19T07:43:28.281Z,2.27
2023-05-19T07:46:30.800Z,2.30
2023-05-19T07:49:33.291Z,2.22
2023-05-19T07:52:35.933Z,2.20
2023-05-19T07:55:38.329Z,2.17
2023-05-19T07:58:40.846Z,2.13
2023-05-19T08:01:43.365Z,2.13
2023-05-19T08:04:45.912Z,1.80
2023-05-19T08:07:48.463Z,2.25
2023-05-19T08:10:50.998Z,1.98
2023-05-19T08:13:53.606Z,2.00
2023-05-19T08:16:56.369Z,2.53
2023-05-19T08:20:00.387Z,2.30
2023-05-19T08:23:02.849Z,2.33
2023-05-19T08:26:05.690Z,1.90
2023-05-19T08:29:08.165Z,2.20
2023-05-19T08:32:13.045Z,2.15
2023-05-19T08:35:15.940Z,2.40
2023-05-19T08:38:18.442Z,2.45
2023-05-19T08:41:21.787Z,2.92
2023-05-19T08:44:24.189Z,2.23
2023-05-19T08:47:27.970Z,2.38
2023-05-19T08:50:36.445Z,2.15
2023-05-19T08:53:44.064Z,2.50
2023-05-19T08:56:47.302Z,2.58
2023-05-19T08:59:54.349Z,2.20
2023-05-19T09:03:05.982Z,2.70
2023-05-19T09:06:19.771Z,2.45
2023-05-19T09:09:22.289Z,2.75
2023-05-19T09:12:24.741Z,3.25
2023-05-19T09:15:28.422Z,2.70
2023-05-19T09:18:31.503Z,3.13
2023-05-19T09:21:34.055Z,2.50
2023-05-19T09:24:37.935Z,2.73
2023-05-19T09:27:40.366Z,2.60
2023-05-19T09:30:42.766Z,2.53
2023-05-19T09:33:46.281Z,2.55
2023-05-19T09:36:53.439Z,3.25
2023-05-19T09:39:56.602Z,2.88
2023-05-19T09:42:59.052Z,3.33
2023-05-19T09:46:09.604Z,2.77
2023-05-19T09:49:14.351Z,3.30
2023-05-19T09:52:16.797Z,2.70
2023-05-19T09:55:23.265Z,2.30
2023-05-19T09:58:27.100Z,2.28
2023-05-19T10:01:33.697Z,2.65
2023-05-19T10:04:36.661Z,3.03
2023-05-19T10:07:40.583Z,2.38
2023-05-19T10:10:43.371Z,3.70
2023-05-19T10:13:47.205Z,3.03
2023-05-19T10:16:52.448Z,2.40
2023-05-19T10:19:55.214Z,2.95
2023-05-19T10:22:57.638Z,2.75
2023-05-19T10:26:04.159Z,2.97
2023-05-19T10:29:06.957Z,2.40
2023-05-19T10:32:17.581Z,2.90
2023-05-19T10:35:22.615Z,2.88
2023-05-19T10:38:43.119Z,2.97
2023-05-19T10:42:07.143Z,3.05
2023-05-19T10:45:16.328Z,2.80
2023-05-19T10:48:23.085Z,2.50
2023-05-19T10:51:32.185Z,2.83
2023-05-19T10:54:43.452Z,3.03
2023-05-19T10:57:58.577Z,3.00
2023-05-19T11:01:01.582Z,3.25
2023-05-19T11:04:06.318Z,2.97
2023-05-19T11:07:10.534Z,2.75
2023-05-19T11:10:13.331Z,3.10
2023-05-19T11:13:22.705Z,3.10
2023-05-19T11:16:28.657Z,3.20
2023-05-19T11:19:34.478Z,3.37
2023-05-19T11:22:37.205Z,2.83
2023-05-19T11:25:47.093Z,2.88
2023-05-19T11:28:49.761Z,3.33
2023-05-19T11:31:52.311Z,3.50
2023-05-19T11:34:56.087Z,3.10
2023-05-19T11:37:59.113Z,2.67
2023-05-19T11:41:01.595Z,2.97
2023-05-19T11:44:04.058Z,3.25
2023-05-19T11:47:06.744Z,2.80
2023-05-19T11:50:11.433Z,3.30
2023-05-19T11:53:14.831Z,3.28
2023-05-19T11:56:17.240Z,2.85
2023-05-19T11:59:34.829Z,3.72
2023-05-19T12:02:38.189Z,3.55
2023-05-19T12:05:46.006Z,3.80
2023-05-19T12:08:51.963Z,3.60
2023-05-19T12:11:55.186Z,3.23
2023-05-19T12:14:57.722Z,2.90
2023-05-19T12:18:02.014Z,3.08
2023-05-19T12:21:05.115Z,3.30
2023-05-19T12:24:07.736Z,3.50
2023-05-19T12:27:14.277Z,3.20
2023-05-19T12:30:17.056Z,3.50
2023-05-19T12:33:22.951Z,3.45
2023-05-19T12:36:25.494Z,3.40
2023-05-19T12:39:28.941Z,4.05
2023-05-19T12:42:31.666Z,3.07
2023-05-19T12:45:35.480Z,3.70
2023-05-19T12:48:43.277Z,3.42
2023-05-19T12:51:52.476Z,3.77
2023-05-19T12:55:07.196Z,3.25
2023-05-19T12:58:11.574Z,2.92
2023-05-19T13:01:18.793Z,3.70
2023-05-19T13:04:21.332Z,3.70
2023-05-19T13:07:24.452Z,3.33
2023-05-19T13:10:27.841Z,2.95
2023-05-19T13:13:30.242Z,3.20
2023-05-19T13:16:32.651Z,3.90
2023-05-19T13:19:35.128Z,3.70
2023-05-19T13:22:37.944Z,3.87
2023-05-19T13:25:41.405Z,3.40
2023-05-19T13:28:43.886Z,3.20
2023-05-19T13:31:46.379Z,4.10
2023-05-19T13:34:48.997Z,3.38
2023-05-19T13:37:51.390Z,3.35
2023-05-19T13:40:53.883Z,3.22
2023-05-19T13:43:59.787Z,3.70
2023-05-19T13:47:02.331Z,3.38
2023-05-19T13:50:05.774Z,3.17
2023-05-19T13:53:08.495Z,3.00
2023-05-19T13:56:10.977Z,3.15
2023-05-19T13:59:13.611Z,3.13
2023-05-19T14:02:16.288Z,4.10
2023-05-19T14:05:18.834Z,3.58
2023-05-19T14:08:22.139Z,3.50
2023-05-19T14:11:24.658Z,3.85
2023-05-19T14:14:27.193Z,2.97
2023-05-19T14:17:29.647Z,3.20
2023-05-19T14:20:32.351Z,3.08
2023-05-19T14:23:34.900Z,3.70
2023-05-19T14:26:37.267Z,3.30
2023-05-19T14:29:39.744Z,3.45
2023-05-19T14:32:42.225Z,3.58
2023-05-19T14:35:44.756Z,5.10
2023-05-19T14:38:47.186Z,3.17
2023-05-19T14:41:51.045Z,3.63
2023-05-19T14:44:53.498Z,3.33
2023-05-19T14:47:56.043Z,3.40
2023-05-19T14:50:58.468Z,3.63
2023-05-19T14:54:02.310Z,3.13
2023-05-19T14:57:07.295Z,3.80
2023-05-19T15:00:10.437Z,3.42
2023-05-19T15:03:14.789Z,3.70
2023-05-19T15:06:17.447Z,4.03
2023-05-19T15:09:19.871Z,3.55
2023-05-19T15:12:22.407Z,3.75
2023-05-19T15:15:24.831Z,3.40
2023-05-19T15:18:27.250Z,3.25
2023-05-19T15:21:29.701Z,4.07
2023-05-19T15:24:32.121Z,3.90
2023-05-19T15:27:36.349Z,3.55
2023-05-19T15:30:38.803Z,4.10
2023-05-19T15:33:41.388Z,3.80
2023-05-19T15:36:43.921Z,3.83
2023-05-19T15:39:46.376Z,4.03
2023-05-19T15:42:48.784Z,3.60
2023-05-19T15:45:54.863Z,3.90
2023-05-19T15:48:57.276Z,3.90
2023-05-19T15:51:59.652Z,3.90
2023-05-19T15:55:02.092Z,4.07
2023-05-19T15:58:04.579Z,3.97
2023-05-19T16:01:07.441Z,3.53
2023-05-19T16:04:09.911Z,4.55
2023-05-19T16:07:12.300Z,4.20
2023-05-19T16:10:14.860Z,4.22
2023-05-19T16:13:17.304Z,3.95
2023-05-19T16:16:19.823Z,3.83
2023-05-19T16:19:23.854Z,4.28
2023-05-19T16:22:27.217Z,5.38
2023-05-19T16:25:29.789Z,5.93
2023-05-19T16:28:32.569Z,5.78
2023-05-19T16:31:35.016Z,5.90
2023-05-19T16:34:37.472Z,6.78
2023-05-19T16:37:40.198Z,6.22
2023-05-19T16:40:42.613Z,6.70
2023-05-19T16:43:45.026Z,6.30
2023-05-19T16:46:47.455Z,6.77
2023-05-19T16:49:49.834Z,6.75
2023-05-19T16:52:52.202Z,6.72
2023-05-19T16:55:54.693Z,7.13
2023-05-19T16:58:57.137Z,5.55
2023-05-19T17:01:59.615Z,6.00
2023-05-19T17:05:02.046Z,6.13
2023-05-19T17:08:05.741Z,5.95
2023-05-19T17:11:08.293Z,7.15
2023-05-19T17:14:11.078Z,7.13
2023-05-19T17:17:13.519Z,5.23
2023-05-19T17:20:16.290Z,5.72
2023-05-19T17:23:18.697Z,7.05
2023-05-19T17:26:22.167Z,6.80
2023-05-19T17:29:24.809Z,4.95
2023-05-19T17:32:29.111Z,7.53
2023-05-19T17:35:33.413Z,5.30
2023-05-19T17:38:40.113Z,5.60
2023-05-19T17:41:43.693Z,5.35
2023-05-19T17:44:46.173Z,6.22
2023-05-19T17:47:48.673Z,9.37
2023-05-19T17:50:51.122Z,11.40
2023-05-19T17:53:53.933Z,9.77
2023-05-19T17:56:58.582Z,5.60
2023-05-19T18:00:01.553Z,5.25
2023-05-19T18:03:06.247Z,5.07
2023-05-19T18:06:09.190Z,5.50
2023-05-19T18:09:14.334Z,5.95
2023-05-19T18:12:17.575Z,5.35
2023-05-19T18:15:19.984Z,5.32
2023-05-19T18:18:22.442Z,5.57
2023-05-19T18:21:25.303Z,5.40
2023-05-19T18:24:27.775Z,4.93
2023-05-19T18:27:31.409Z,5.20
2023-05-19T18:30:34.037Z,4.53
2023-05-19T18:33:36.711Z,4.38
2023-05-19T18:36:39.075Z,4.50
2023-05-19T18:39:41.453Z,5.03
2023-05-19T18:42:43.951Z,4.35
2023-05-19T18:45:49.310Z,4.57
2023-05-19T18:48:51.741Z,4.80
2023-05-19T18:51:54.204Z,3.83
2023-05-19T18:54:56.710Z,4.38
2023-05-19T18:57:59.240Z,4.20
2023-05-19T19:01:01.715Z,4.68
2023-05-19T19:04:04.340Z,4.60
2023-05-19T19:07:06.857Z,4.53
2023-05-19T19:10:09.617Z,5.63
2023-05-19T19:13:12.074Z,4.93
2023-05-19T19:16:14.538Z,5.60
2023-05-19T19:19:17.018Z,5.07
2023-05-19T19:22:19.490Z,5.75
2023-05-19T19:25:23.534Z,6.10
2023-05-19T19:28:26.557Z,5.47
2023-05-19T19:31:29.103Z,6.40
2023-05-19T19:34:31.735Z,7.07
2023-05-19T19:37:34.106Z,6.57
2023-05-19T19:40:36.805Z,8.15
2023-05-19T19:43:39.374Z,5.90
2023-05-19T19:46:41.808Z,6.47
2023-05-19T19:49:45.842Z,6.27
2023-05-19T19:52:48.293Z,5.47
2023-05-19T19:55:57.648Z,5.25
2023-05-19T19:59:00.283Z,6.23
2023-05-19T20:02:02.849Z,5.50
2023-05-19T20:05:05.839Z,5.68
2023-05-19T20:08:08.650Z,5.60
2023-05-19T20:11:11.132Z,5.25
2023-05-19T20:14:13.515Z,4.82
2023-05-19T20:17:16.030Z,5.57
2023-05-19T20:20:18.440Z,4.97
2023-05-19T20:23:21.330Z,5.70
2023-05-19T20:26:24.374Z,6.18
2023-05-19T20:29:27.329Z,6.00
2023-05-19T20:32:29.742Z,5.93
2023-05-19T20:35:32.363Z,5.72
2023-05-19T20:38:34.998Z,6.05
2023-05-19T20:41:37.492Z,6.10
2023-05-19T20:44:39.865Z,5.40
2023-05-19T20:47:42.259Z,6.50
2023-05-19T20:50:44.745Z,5.50
2023-05-19T20:53:47.201Z,5.78
2023-05-19T20:56:51.087Z,5.88
2023-05-19T20:59:53.561Z,6.20
2023-05-19T21:02:56.046Z,6.20
2023-05-19T21:05:58.507Z,5.80
2023-05-19T21:09:03.807Z,6.22
2023-05-19T21:12:06.338Z,6.65
2023-05-19T21:15:09.870Z,6.72
2023-05-19T21:18:12.835Z,6.55
2023-05-19T21:21:15.396Z,7.00
2023-05-19T21:24:17.875Z,6.70
2023-05-19T21:27:20.385Z,6.40
2023-05-19T21:30:23.639Z,5.90
2023-05-19T21:33:26.019Z,6.30
2023-05-19T21:36:28.445Z,6.45
2023-05-19T21:39:30.821Z,6.68
2023-05-19T21:42:33.183Z,6.45
2023-05-19T21:45:35.616Z,6.75
2023-05-19T21:48:38.077Z,7.00
2023-05-19T21:51:40.582Z,5.70
2023-05-19T21:54:43.148Z,7.00
2023-05-19T21:57:45.546Z,6.45
2023-05-19T22:00:50.008Z,7.13
2023-05-19T22:03:53.077Z,6.53
2023-05-19T22:06:55.507Z,7.22
2023-05-19T22:09:57.855Z,6.93
2023-05-19T22:13:00.274Z,7.68
2023-05-19T22:16:04.673Z,7.10
2023-05-19T22:19:07.368Z,6.70
2023-05-19T22:22:14.419Z,7.13
2023-05-19T22:25:17.149Z,7.47
2023-05-19T22:28:19.531Z,7.28
2023-05-19T22:31:21.952Z,7.33
2023-05-19T22:34:24.390Z,8.30
2023-05-19T22:37:28.889Z,8.43
2023-05-19T22:40:32.544Z,7.82
2023-05-19T22:43:35.202Z,8.07
2023-05-19T22:46:37.684Z,6.40
2023-05-19T22:49:41.277Z,7.47
2023-05-19T22:52:43.727Z,7.00
2023-05-19T22:55:46.228Z,7.70
2023-05-19T22:58:48.642Z,7.10
2023-05-19T23:01:51.134Z,7.17
2023-05-19T23:04:53.622Z,7.13
2023-05-19T23:07:56.173Z,6.95
2023-05-19T23:11:02.280Z,7.25
2023-05-19T23:14:04.764Z,6.72
2023-05-19T23:17:07.390Z,7.40
2023-05-19T23:20:10.640Z,7.82
2023-05-19T23:23:13.223Z,7.00
2023-05-19T23:26:15.655Z,8.23
2023-05-19T23:29:18.136Z,7.90
2023-05-19T23:32:20.537Z,7.93
2023-05-19T23:35:22.906Z,8.18
2023-05-19T23:38:25.740Z,7.57
2023-05-19T23:41:28.198Z,7.43
2023-05-19T23:44:30.705Z,7.63
2023-05-19T23:47:33.089Z,7.88
2023-05-19T23:50:35.723Z,8.18
2023-05-19T23:53:38.228Z,7.37
2023-05-19T23:56:40.786Z,7.70
2023-05-19T23:59:43.179Z,7.85
